sensor_id;sensor_type;location;lat;lon;timestamp;P1;durP1;ratioP1;P2;durP2;ratioP2
22240;SDS011;11289;52.524;13.694;2023-06-10T00:00:42;7.50;;;4.30;;
22240;SDS011;11289;52.524;13.694;2023-06-10T00:03:09;9.63;;;3.95;;
22240;SDS011;11289;52.524;13.694;2023-06-10T00:05:35;7.80;;;4.13;;
22240;SDS011;11289;52.524;13.694;2023-06-10T00:08:04;7.53;;;4.00;;
22240;SDS011;11289;52.524;13.694;2023-06-10T00:10:34;9.18;;;4.13;;
22240;SDS011;11289;52.524;13.694;2023-06-10T00:13:01;8.23;;;4.35;;
22240;SDS011;11289;52.524;13.694;2023-06-10T00:15:29;10.30;;;4.30;;
22240;SDS011;11289;52.524;13.694;2023-06-10T00:17:55;9.90;;;4.00;;
22240;SDS011;11289;52.524;13.694;2023-06-10T00:20:21;7.55;;;3.85;;
22240;SDS011;11289;52.524;13.694;2023-06-10T00:22:51;8.10;;;4.05;;
22240;SDS011;11289;52.524;13.694;2023-06-10T00:25:17;8.57;;;4.65;;
22240;SDS011;11289;52.524;13.694;2023-06-10T00:27:44;10.85;;;3.72;;
22240;SDS011;11289;52.524;13.694;2023-06-10T00:30:10;6.18;;;3.72;;
22240;SDS011;11289;52.524;13.694;2023-06-10T00:32:37;9.55;;;4.97;;
22240;SDS011;11289;52.524;13.694;2023-06-10T00:35:03;10.55;;;3.80;;
22240;SDS011;11289;52.524;13.694;2023-06-10T00:37:30;8.82;;;4.10;;
22240;SDS011;11289;52.524;13.694;2023-06-10T00:39:56;12.30;;;3.95;;
22240;SDS011;11289;52.524;13.694;2023-06-10T00:42:21;9.40;;;4.15;;
22240;SDS011;11289;52.524;13.694;2023-06-10T00:44:51;7.15;;;3.75;;
22240;SDS011;11289;52.524;13.694;2023-06-10T00:47:17;9.73;;;4.25;;
22240;SDS011;11289;52.524;13.694;2023-06-10T00:49:44;11.55;;;4.95;;
22240;SDS011;11289;52.524;13.694;2023-06-10T00:52:11;9.73;;;3.95;;
22240;SDS011;11289;52.524;13.694;2023-06-10T00:54:38;12.32;;;4.82;;
22240;SDS011;11289;52.524;13.694;2023-06-10T00:57:05;9.02;;;4.22;;
22240;SDS011;11289;52.524;13.694;2023-06-10T00:59:31;10.65;;;4.45;;
22240;SDS011;11289;52.524;13.694;2023-06-10T01:01:57;9.60;;;4.00;;
22240;SDS011;11289;52.524;13.694;2023-06-10T01:04:24;9.13;;;3.80;;
22240;SDS011;11289;52.524;13.694;2023-06-10T01:07:03;9.45;;;3.88;;
22240;SDS011;11289;52.524;13.694;2023-06-10T01:09:38;14.13;;;4.32;;
22240;SDS011;11289;52.524;13.694;2023-06-10T01:12:41;7.90;;;4.15;;
22240;SDS011;11289;52.524;13.694;2023-06-10T01:15:17;11.38;;;4.45;;
22240;SDS011;11289;52.524;13.694;2023-06-10T01:17:56;11.70;;;4.53;;
22240;SDS011;11289;52.524;13.694;2023-06-10T01:20:27;10.43;;;4.50;;
22240;SDS011;11289;52.524;13.694;2023-06-10T01:22:55;11.27;;;3.53;;
22240;SDS011;11289;52.524;13.694;2023-06-10T01:25:23;9.75;;;4.47;;
22240;SDS011;11289;52.524;13.694;2023-06-10T01:28:38;9.00;;;4.15;;
22240;SDS011;11289;52.524;13.694;2023-06-10T01:30:53;7.45;;;4.22;;
22240;SDS011;11289;52.524;13.694;2023-06-10T01:33:29;8.35;;;3.95;;
22240;SDS011;11289;52.524;13.694;2023-06-10T01:35:59;9.77;;;4.20;;
22240;SDS011;11289;52.524;13.694;2023-06-10T01:38:27;6.95;;;3.97;;
22240;SDS011;11289;52.524;13.694;2023-06-10T01:40:58;9.05;;;4.07;;
22240;SDS011;11289;52.524;13.694;2023-06-10T01:43:25;8.48;;;4.13;;
22240;SDS011;11289;52.524;13.694;2023-06-10T01:45:51;7.05;;;4.50;;
22240;SDS011;11289;52.524;13.694;2023-06-10T01:48:17;7.75;;;4.22;;
22240;SDS011;11289;52.524;13.694;2023-06-10T01:50:43;11.70;;;4.57;;
22240;SDS011;11289;52.524;13.694;2023-06-10T01:53:09;10.85;;;4.65;;
22240;SDS011;11289;52.524;13.694;2023-06-10T01:55:35;9.23;;;4.28;;
22240;SDS011;11289;52.524;13.694;2023-06-10T01:58:01;8.48;;;4.40;;
22240;SDS011;11289;52.524;13.694;2023-06-10T02:00:28;12.98;;;4.75;;
22240;SDS011;11289;52.524;13.694;2023-06-10T02:02:54;7.05;;;4.47;;
22240;SDS011;11289;52.524;13.694;2023-06-10T02:05:20;6.57;;;4.07;;
22240;SDS011;11289;52.524;13.694;2023-06-10T02:07:46;9.32;;;4.30;;
22240;SDS011;11289;52.524;13.694;2023-06-10T02:10:11;9.45;;;4.55;;
22240;SDS011;11289;52.524;13.694;2023-06-10T02:12:37;9.75;;;4.43;;
22240;SDS011;11289;52.524;13.694;2023-06-10T02:15:03;11.50;;;4.45;;
22240;SDS011;11289;52.524;13.694;2023-06-10T02:17:30;12.10;;;5.28;;
22240;SDS011;11289;52.524;13.694;2023-06-10T02:19:56;15.00;;;4.88;;
22240;SDS011;11289;52.524;13.694;2023-06-10T02:22:22;8.52;;;4.65;;
22240;SDS011;11289;52.524;13.694;2023-06-10T02:24:49;9.38;;;5.57;;
22240;SDS011;11289;52.524;13.694;2023-06-10T02:27:15;12.95;;;5.68;;
22240;SDS011;11289;52.524;13.694;2023-06-10T02:29:42;8.95;;;4.13;;
22240;SDS011;11289;52.524;13.694;2023-06-10T02:32:08;10.90;;;4.60;;
22240;SDS011;11289;52.524;13.694;2023-06-10T02:34:35;8.80;;;4.03;;
22240;SDS011;11289;52.524;13.694;2023-06-10T02:37:02;11.10;;;4.68;;
22240;SDS011;11289;52.524;13.694;2023-06-10T02:39:28;10.40;;;4.28;;
22240;SDS011;11289;52.524;13.694;2023-06-10T02:41:54;10.52;;;4.70;;
22240;SDS011;11289;52.524;13.694;2023-06-10T02:44:20;9.82;;;4.72;;
22240;SDS011;11289;52.524;13.694;2023-06-10T02:46:46;11.65;;;5.30;;
22240;SDS011;11289;52.524;13.694;2023-06-10T02:49:12;8.55;;;4.78;;
22240;SDS011;11289;52.524;13.694;2023-06-10T02:51:38;11.95;;;5.30;;
22240;SDS011;11289;52.524;13.694;2023-06-10T02:54:04;11.13;;;4.70;;
22240;SDS011;11289;52.524;13.694;2023-06-10T02:56:30;8.80;;;5.45;;
22240;SDS011;11289;52.524;13.694;2023-06-10T02:58:58;11.65;;;5.40;;
22240;SDS011;11289;52.524;13.694;2023-06-10T03:01:25;11.43;;;5.80;;
22240;SDS011;11289;52.524;13.694;2023-06-10T03:03:51;8.68;;;5.35;;
22240;SDS011;11289;52.524;13.694;2023-06-10T03:06:18;9.45;;;4.80;;
22240;SDS011;11289;52.524;13.694;2023-06-10T03:08:44;9.38;;;4.57;;
22240;SDS011;11289;52.524;13.694;2023-06-10T03:11:11;10.73;;;5.20;;
22240;SDS011;11289;52.524;13.694;2023-06-10T03:13:38;9.90;;;5.43;;
22240;SDS011;11289;52.524;13.694;2023-06-10T03:16:05;9.63;;;5.13;;
22240;SDS011;11289;52.524;13.694;2023-06-10T03:18:31;10.20;;;5.03;;
22240;SDS011;11289;52.524;13.694;2023-06-10T03:20:57;10.73;;;5.35;;
22240;SDS011;11289;52.524;13.694;2023-06-10T03:23:23;10.38;;;5.20;;
22240;SDS011;11289;52.524;13.694;2023-06-10T03:25:49;9.95;;;4.82;;
22240;SDS011;11289;52.524;13.694;2023-06-10T03:28:15;9.90;;;4.90;;
22240;SDS011;11289;52.524;13.694;2023-06-10T03:30:41;12.93;;;5.40;;
22240;SDS011;11289;52.524;13.694;2023-06-10T03:33:07;10.02;;;5.35;;
22240;SDS011;11289;52.524;13.694;2023-06-10T03:35:33;11.85;;;5.35;;
22240;SDS011;11289;52.524;13.694;2023-06-10T03:38:00;11.65;;;5.40;;
22240;SDS011;11289;52.524;13.694;2023-06-10T03:40:26;8.95;;;4.50;;
22240;SDS011;11289;52.524;13.694;2023-06-10T03:42:52;8.25;;;4.70;;
22240;SDS011;11289;52.524;13.694;2023-06-10T03:45:18;9.25;;;4.80;;
22240;SDS011;11289;52.524;13.694;2023-06-10T03:47:44;10.25;;;5.68;;
22240;SDS011;11289;52.524;13.694;2023-06-10T03:50:10;10.40;;;5.85;;
22240;SDS011;11289;52.524;13.694;2023-06-10T03:52:37;13.15;;;5.78;;
22240;SDS011;11289;52.524;13.694;2023-06-10T03:55:03;13.75;;;6.15;;
22240;SDS011;11289;52.524;13.694;2023-06-10T03:57:30;13.25;;;5.80;;
22240;SDS011;11289;52.524;13.694;2023-06-10T03:59:56;10.82;;;5.30;;
22240;SDS011;11289;52.524;13.694;2023-06-10T04:02:23;10.57;;;6.18;;
22240;SDS011;11289;52.524;13.694;2023-06-10T04:04:49;10.35;;;5.60;;
22240;SDS011;11289;52.524;13.694;2023-06-10T04:07:16;11.05;;;5.68;;
22240;SDS011;11289;52.524;13.694;2023-06-10T04:09:45;11.68;;;5.78;;
22240;SDS011;11289;52.524;13.694;2023-06-10T04:12:12;11.00;;;5.50;;
22240;SDS011;11289;52.524;13.694;2023-06-10T04:14:38;9.63;;;5.50;;
22240;SDS011;11289;52.524;13.694;2023-06-10T04:17:04;8.88;;;5.20;;
22240;SDS011;11289;52.524;13.694;2023-06-10T04:19:33;11.32;;;5.68;;
22240;SDS011;11289;52.524;13.694;2023-06-10T04:22:00;9.57;;;4.78;;
22240;SDS011;11289;52.524;13.694;2023-06-10T04:24:28;12.88;;;5.72;;
22240;SDS011;11289;52.524;13.694;2023-06-10T04:26:53;8.07;;;5.82;;
22240;SDS011;11289;52.524;13.694;2023-06-10T04:29:19;12.02;;;6.07;;
22240;SDS011;11289;52.524;13.694;2023-06-10T04:31:45;10.75;;;5.55;;
22240;SDS011;11289;52.524;13.694;2023-06-10T04:34:12;10.90;;;5.63;;
22240;SDS011;11289;52.524;13.694;2023-06-10T04:36:39;14.43;;;6.38;;
22240;SDS011;11289;52.524;13.694;2023-06-10T04:39:05;12.90;;;6.43;;
22240;SDS011;11289;52.524;13.694;2023-06-10T04:41:33;13.52;;;5.38;;
22240;SDS011;11289;52.524;13.694;2023-06-10T04:43:59;8.18;;;5.97;;
22240;SDS011;11289;52.524;13.694;2023-06-10T04:46:25;12.05;;;5.85;;
22240;SDS011;11289;52.524;13.694;2023-06-10T04:48:51;10.27;;;6.10;;
22240;SDS011;11289;52.524;13.694;2023-06-10T04:51:18;10.13;;;6.28;;
22240;SDS011;11289;52.524;13.694;2023-06-10T04:53:44;13.02;;;6.10;;
22240;SDS011;11289;52.524;13.694;2023-06-10T04:56:10;13.15;;;6.47;;
22240;SDS011;11289;52.524;13.694;2023-06-10T04:58:36;10.07;;;6.75;;
22240;SDS011;11289;52.524;13.694;2023-06-10T05:01:02;9.05;;;6.13;;
22240;SDS011;11289;52.524;13.694;2023-06-10T05:03:28;8.52;;;5.70;;
22240;SDS011;11289;52.524;13.694;2023-06-10T05:05:54;12.30;;;6.35;;
22240;SDS011;11289;52.524;13.694;2023-06-10T05:08:20;9.25;;;6.03;;
22240;SDS011;11289;52.524;13.694;2023-06-10T05:10:46;8.80;;;6.22;;
22240;SDS011;11289;52.524;13.694;2023-06-10T05:13:12;10.45;;;5.95;;
22240;SDS011;11289;52.524;13.694;2023-06-10T05:15:38;10.23;;;6.95;;
22240;SDS011;11289;52.524;13.694;2023-06-10T05:18:05;11.70;;;6.63;;
22240;SDS011;11289;52.524;13.694;2023-06-10T05:20:31;12.30;;;6.95;;
22240;SDS011;11289;52.524;13.694;2023-06-10T05:22:57;9.65;;;6.18;;
22240;SDS011;11289;52.524;13.694;2023-06-10T05:25:25;9.68;;;6.22;;
22240;SDS011;11289;52.524;13.694;2023-06-10T05:27:52;13.77;;;6.53;;
22240;SDS011;11289;52.524;13.694;2023-06-10T05:30:18;11.63;;;6.82;;
22240;SDS011;11289;52.524;13.694;2023-06-10T05:32:44;14.60;;;8.20;;
22240;SDS011;11289;52.524;13.694;2023-06-10T05:35:10;10.88;;;7.60;;
22240;SDS011;11289;52.524;13.694;2023-06-10T05:37:36;11.75;;;6.57;;
22240;SDS011;11289;52.524;13.694;2023-06-10T05:40:02;12.73;;;7.13;;
22240;SDS011;11289;52.524;13.694;2023-06-10T05:42:30;10.85;;;6.53;;
22240;SDS011;11289;52.524;13.694;2023-06-10T05:44:56;15.00;;;6.95;;
22240;SDS011;11289;52.524;13.694;2023-06-10T05:47:21;12.25;;;6.90;;
22240;SDS011;11289;52.524;13.694;2023-06-10T05:49:47;11.80;;;6.68;;
22240;SDS011;11289;52.524;13.694;2023-06-10T05:52:15;11.32;;;5.97;;
22240;SDS011;11289;52.524;13.694;2023-06-10T05:54:41;10.68;;;7.10;;
22240;SDS011;11289;52.524;13.694;2023-06-10T05:57:07;9.45;;;6.82;;
22240;SDS011;11289;52.524;13.694;2023-06-10T05:59:33;9.68;;;7.03;;
22240;SDS011;11289;52.524;13.694;2023-06-10T06:01:59;8.90;;;6.70;;
22240;SDS011;11289;52.524;13.694;2023-06-10T06:04:25;10.63;;;6.18;;
22240;SDS011;11289;52.524;13.694;2023-06-10T06:06:51;8.93;;;7.38;;
22240;SDS011;11289;52.524;13.694;2023-06-10T06:09:17;11.38;;;7.05;;
22240;SDS011;11289;52.524;13.694;2023-06-10T06:11:43;10.10;;;7.20;;
22240;SDS011;11289;52.524;13.694;2023-06-10T06:14:09;10.05;;;6.95;;
22240;SDS011;11289;52.524;13.694;2023-06-10T06:16:35;17.30;;;7.53;;
22240;SDS011;11289;52.524;13.694;2023-06-10T06:19:01;9.65;;;6.88;;
22240;SDS011;11289;52.524;13.694;2023-06-10T06:21:27;8.05;;;6.53;;
22240;SDS011;11289;52.524;13.694;2023-06-10T06:23:53;10.25;;;6.97;;
22240;SDS011;11289;52.524;13.694;2023-06-10T06:26:20;9.65;;;6.22;;
22240;SDS011;11289;52.524;13.694;2023-06-10T06:28:46;9.57;;;6.45;;
22240;SDS011;11289;52.524;13.694;2023-06-10T06:31:12;9.13;;;7.30;;
22240;SDS011;11289;52.524;13.694;2023-06-10T06:33:39;9.52;;;7.45;;
22240;SDS011;11289;52.524;13.694;2023-06-10T06:36:05;13.52;;;6.63;;
22240;SDS011;11289;52.524;13.694;2023-06-10T06:38:31;9.65;;;7.00;;
22240;SDS011;11289;52.524;13.694;2023-06-10T06:40:58;12.00;;;7.28;;
22240;SDS011;11289;52.524;13.694;2023-06-10T06:43:29;13.60;;;6.78;;
22240;SDS011;11289;52.524;13.694;2023-06-10T06:45:58;10.73;;;6.40;;
22240;SDS011;11289;52.524;13.694;2023-06-10T06:48:24;11.45;;;7.22;;
22240;SDS011;11289;52.524;13.694;2023-06-10T06:50:50;9.73;;;6.75;;
22240;SDS011;11289;52.524;13.694;2023-06-10T06:53:16;8.95;;;6.32;;
22240;SDS011;11289;52.524;13.694;2023-06-10T06:55:42;11.70;;;7.32;;
22240;SDS011;11289;52.524;13.694;2023-06-10T06:58:08;9.77;;;7.40;;
22240;SDS011;11289;52.524;13.694;2023-06-10T07:00:34;12.50;;;7.75;;
22240;SDS011;11289;52.524;13.694;2023-06-10T07:03:00;8.00;;;6.40;;
22240;SDS011;11289;52.524;13.694;2023-06-10T07:05:26;10.20;;;6.35;;
22240;SDS011;11289;52.524;13.694;2023-06-10T07:07:53;13.35;;;7.80;;
22240;SDS011;11289;52.524;13.694;2023-06-10T07:10:24;9.98;;;6.85;;
22240;SDS011;11289;52.524;13.694;2023-06-10T07:12:50;12.65;;;7.13;;
22240;SDS011;11289;52.524;13.694;2023-06-10T07:15:18;11.50;;;7.55;;
22240;SDS011;11289;52.524;13.694;2023-06-10T07:17:44;9.50;;;6.55;;
22240;SDS011;11289;52.524;13.694;2023-06-10T07:20:10;11.80;;;7.68;;
22240;SDS011;11289;52.524;13.694;2023-06-10T07:22:36;11.50;;;8.02;;
22240;SDS011;11289;52.524;13.694;2023-06-10T07:25:04;14.18;;;8.13;;
22240;SDS011;11289;52.524;13.694;2023-06-10T07:27:31;8.55;;;6.18;;
22240;SDS011;11289;52.524;13.694;2023-06-10T07:29:57;15.40;;;6.95;;
22240;SDS011;11289;52.524;13.694;2023-06-10T07:32:23;11.85;;;7.20;;
22240;SDS011;11289;52.524;13.694;2023-06-10T07:34:49;9.63;;;6.43;;
22240;SDS011;11289;52.524;13.694;2023-06-10T07:37:16;9.02;;;6.50;;
22240;SDS011;11289;52.524;13.694;2023-06-10T07:39:42;9.15;;;6.28;;
22240;SDS011;11289;52.524;13.694;2023-06-10T07:42:08;10.93;;;7.03;;
22240;SDS011;11289;52.524;13.694;2023-06-10T07:44:35;13.55;;;7.82;;
22240;SDS011;11289;52.524;13.694;2023-06-10T07:47:01;13.40;;;7.25;;
22240;SDS011;11289;52.524;13.694;2023-06-10T07:49:27;13.98;;;7.63;;
22240;SDS011;11289;52.524;13.694;2023-06-10T07:51:56;11.50;;;7.20;;
22240;SDS011;11289;52.524;13.694;2023-06-10T07:54:22;12.95;;;7.15;;
22240;SDS011;11289;52.524;13.694;2023-06-10T07:56:49;10.80;;;7.15;;
22240;SDS011;11289;52.524;13.694;2023-06-10T07:59:15;11.63;;;7.63;;
22240;SDS011;11289;52.524;13.694;2023-06-10T08:01:42;10.75;;;6.95;;
22240;SDS011;11289;52.524;13.694;2023-06-10T08:04:08;9.80;;;7.22;;
22240;SDS011;11289;52.524;13.694;2023-06-10T08:06:34;9.15;;;7.28;;
22240;SDS011;11289;52.524;13.694;2023-06-10T08:09:02;9.55;;;6.20;;
22240;SDS011;11289;52.524;13.694;2023-06-10T08:11:29;9.57;;;6.78;;
22240;SDS011;11289;52.524;13.694;2023-06-10T08:13:55;8.27;;;6.65;;
22240;SDS011;11289;52.524;13.694;2023-06-10T08:16:21;8.95;;;6.85;;
22240;SDS011;11289;52.524;13.694;2023-06-10T08:18:47;13.63;;;7.03;;
22240;SDS011;11289;52.524;13.694;2023-06-10T08:21:13;12.25;;;7.15;;
22240;SDS011;11289;52.524;13.694;2023-06-10T08:23:39;7.93;;;6.95;;
22240;SDS011;11289;52.524;13.694;2023-06-10T08:26:05;7.60;;;6.50;;
22240;SDS011;11289;52.524;13.694;2023-06-10T08:28:31;8.85;;;7.07;;
22240;SDS011;11289;52.524;13.694;2023-06-10T08:30:57;10.10;;;7.10;;
22240;SDS011;11289;52.524;13.694;2023-06-10T08:33:23;9.75;;;7.63;;
22240;SDS011;11289;52.524;13.694;2023-06-10T08:35:49;14.52;;;7.85;;
22240;SDS011;11289;52.524;13.694;2023-06-10T08:38:15;12.48;;;8.25;;
22240;SDS011;11289;52.524;13.694;2023-06-10T08:40:41;9.65;;;7.88;;
22240;SDS011;11289;52.524;13.694;2023-06-10T08:43:08;12.68;;;7.53;;
22240;SDS011;11289;52.524;13.694;2023-06-10T08:45:42;9.98;;;8.07;;
22240;SDS011;11289;52.524;13.694;2023-06-10T08:48:13;9.75;;;7.25;;
22240;SDS011;11289;52.524;13.694;2023-06-10T08:50:41;7.45;;;6.72;;
22240;SDS011;11289;52.524;13.694;2023-06-10T08:53:07;13.68;;;7.55;;
22240;SDS011;11289;52.524;13.694;2023-06-10T08:55:35;9.15;;;7.13;;
22240;SDS011;11289;52.524;13.694;2023-06-10T08:58:03;10.95;;;7.72;;
22240;SDS011;11289;52.524;13.694;2023-06-10T09:00:29;12.10;;;7.75;;
22240;SDS011;11289;52.524;13.694;2023-06-10T09:02:57;10.63;;;7.72;;
22240;SDS011;11289;52.524;13.694;2023-06-10T09:05:24;10.80;;;7.47;;
22240;SDS011;11289;52.524;13.694;2023-06-10T09:07:52;8.55;;;7.18;;
22240;SDS011;11289;52.524;13.694;2023-06-10T09:10:19;9.63;;;6.53;;
22240;SDS011;11289;52.524;13.694;2023-06-10T09:12:45;8.00;;;6.45;;
22240;SDS011;11289;52.524;13.694;2023-06-10T09:15:11;10.20;;;6.55;;
22240;SDS011;11289;52.524;13.694;2023-06-10T09:17:38;9.68;;;6.18;;
22240;SDS011;11289;52.524;13.694;2023-06-10T09:20:09;8.82;;;7.10;;
22240;SDS011;11289;52.524;13.694;2023-06-10T09:22:35;10.85;;;7.70;;
22240;SDS011;11289;52.524;13.694;2023-06-10T09:25:04;10.27;;;7.40;;
22240;SDS011;11289;52.524;13.694;2023-06-10T09:30:09;8.25;;;6.43;;
22240;SDS011;11289;52.524;13.694;2023-06-10T09:32:38;12.20;;;6.97;;
22240;SDS011;11289;52.524;13.694;2023-06-10T09:35:08;6.70;;;5.97;;
22240;SDS011;11289;52.524;13.694;2023-06-10T09:37:35;8.60;;;5.93;;
22240;SDS011;11289;52.524;13.694;2023-06-10T09:40:07;11.38;;;6.00;;
22240;SDS011;11289;52.524;13.694;2023-06-10T09:42:34;14.75;;;5.80;;
22240;SDS011;11289;52.524;13.694;2023-06-10T09:45:05;10.90;;;6.57;;
22240;SDS011;11289;52.524;13.694;2023-06-10T09:47:32;10.30;;;5.97;;
22240;SDS011;11289;52.524;13.694;2023-06-10T09:49:58;9.07;;;6.05;;
22240;SDS011;11289;52.524;13.694;2023-06-10T09:52:24;7.38;;;6.13;;
22240;SDS011;11289;52.524;13.694;2023-06-10T09:54:51;7.40;;;5.97;;
22240;SDS011;11289;52.524;13.694;2023-06-10T09:57:19;9.60;;;6.68;;
22240;SDS011;11289;52.524;13.694;2023-06-10T09:59:46;9.75;;;5.63;;
22240;SDS011;11289;52.524;13.694;2023-06-10T10:02:14;9.30;;;5.07;;
22240;SDS011;11289;52.524;13.694;2023-06-10T10:04:41;10.73;;;4.85;;
22240;SDS011;11289;52.524;13.694;2023-06-10T10:07:10;7.07;;;5.28;;
22240;SDS011;11289;52.524;13.694;2023-06-10T10:09:37;6.07;;;4.18;;
22240;SDS011;11289;52.524;13.694;2023-06-10T10:12:09;9.70;;;5.07;;
22240;SDS011;11289;52.524;13.694;2023-06-10T10:14:38;6.65;;;4.70;;
22240;SDS011;11289;52.524;13.694;2023-06-10T10:17:07;7.15;;;4.53;;
22240;SDS011;11289;52.524;13.694;2023-06-10T10:20:01;4.03;;;3.25;;
22240;SDS011;11289;52.524;13.694;2023-06-10T10:22:30;5.68;;;4.35;;
22240;SDS011;11289;52.524;13.694;2023-06-10T10:25:02;5.97;;;3.83;;
22240;SDS011;11289;52.524;13.694;2023-06-10T10:27:43;5.85;;;4.00;;
22240;SDS011;11289;52.524;13.694;2023-06-10T10:30:14;6.63;;;3.65;;
22240;SDS011;11289;52.524;13.694;2023-06-10T10:32:50;5.32;;;3.72;;
22240;SDS011;11289;52.524;13.694;2023-06-10T10:35:22;3.63;;;3.03;;
22240;SDS011;11289;52.524;13.694;2023-06-10T10:37:52;5.15;;;3.13;;
22240;SDS011;11289;52.524;13.694;2023-06-10T10:40:23;4.65;;;3.17;;
22240;SDS011;11289;52.524;13.694;2023-06-10T10:42:50;5.47;;;3.58;;
22240;SDS011;11289;52.524;13.694;2023-06-10T10:45:17;4.55;;;3.45;;
22240;SDS011;11289;52.524;13.694;2023-06-10T10:47:48;5.50;;;3.65;;
22240;SDS011;11289;52.524;13.694;2023-06-10T10:50:19;4.68;;;3.78;;
22240;SDS011;11289;52.524;13.694;2023-06-10T10:52:56;5.05;;;3.42;;
22240;SDS011;11289;52.524;13.694;2023-06-10T10:55:25;3.40;;;2.95;;
22240;SDS011;11289;52.524;13.694;2023-06-10T10:57:56;4.28;;;3.67;;
22240;SDS011;11289;52.524;13.694;2023-06-10T11:00:29;5.53;;;3.78;;
22240;SDS011;11289;52.524;13.694;2023-06-10T11:02:58;6.28;;;3.60;;
22240;SDS011;11289;52.524;13.694;2023-06-10T11:05:59;3.70;;;2.97;;
22240;SDS011;11289;52.524;13.694;2023-06-10T11:10:59;4.55;;;3.92;;
22240;SDS011;11289;52.524;13.694;2023-06-10T11:13:25;4.88;;;3.03;;
22240;SDS011;11289;52.524;13.694;2023-06-10T11:15:56;5.97;;;3.05;;
22240;SDS011;11289;52.524;13.694;2023-06-10T11:20:54;4.68;;;3.00;;
22240;SDS011;11289;52.524;13.694;2023-06-10T11:31:18;5.13;;;3.83;;
22240;SDS011;11289;52.524;13.694;2023-06-10T11:33:55;6.30;;;4.30;;
22240;SDS011;11289;52.524;13.694;2023-06-10T11:36:23;7.35;;;4.97;;
22240;SDS011;11289;52.524;13.694;2023-06-10T11:38:49;5.38;;;4.78;;
22240;SDS011;11289;52.524;13.694;2023-06-10T11:41:18;7.78;;;5.70;;
22240;SDS011;11289;52.524;13.694;2023-06-10T11:43:44;6.43;;;5.78;;
22240;SDS011;11289;52.524;13.694;2023-06-10T11:46:12;7.85;;;6.50;;
22240;SDS011;11289;52.524;13.694;2023-06-10T11:48:38;8.48;;;6.60;;
22240;SDS011;11289;52.524;13.694;2023-06-10T11:51:05;10.15;;;6.47;;
22240;SDS011;11289;52.524;13.694;2023-06-10T11:53:32;12.50;;;6.60;;
22240;SDS011;11289;52.524;13.694;2023-06-10T11:56:01;8.20;;;7.38;;
22240;SDS011;11289;52.524;13.694;2023-06-10T11:58:27;10.10;;;6.40;;
22240;SDS011;11289;52.524;13.694;2023-06-10T12:00:55;10.60;;;6.78;;
22240;SDS011;11289;52.524;13.694;2023-06-10T12:03:27;7.25;;;6.55;;
22240;SDS011;11289;52.524;13.694;2023-06-10T12:06:06;9.98;;;6.90;;
22240;SDS011;11289;52.524;13.694;2023-06-10T12:08:35;8.35;;;6.63;;
22240;SDS011;11289;52.524;13.694;2023-06-10T12:11:09;6.72;;;6.03;;
22240;SDS011;11289;52.524;13.694;2023-06-10T12:13:36;7.55;;;6.80;;
22240;SDS011;11289;52.524;13.694;2023-06-10T12:16:06;7.72;;;6.80;;
22240;SDS011;11289;52.524;13.694;2023-06-10T12:18:33;7.63;;;6.53;;
22240;SDS011;11289;52.524;13.694;2023-06-10T12:20:59;9.18;;;6.85;;
22240;SDS011;11289;52.524;13.694;2023-06-10T12:23:25;11.95;;;6.88;;
22240;SDS011;11289;52.524;13.694;2023-06-10T12:25:52;9.90;;;6.50;;
22240;SDS011;11289;52.524;13.694;2023-06-10T12:28:26;9.75;;;6.53;;
22240;SDS011;11289;52.524;13.694;2023-06-10T12:31:05;7.07;;;6.32;;
22240;SDS011;11289;52.524;13.694;2023-06-10T12:33:33;7.13;;;6.43;;
22240;SDS011;11289;52.524;13.694;2023-06-10T12:35:59;10.25;;;6.45;;
22240;SDS011;11289;52.524;13.694;2023-06-10T12:38:25;8.13;;;6.88;;
22240;SDS011;11289;52.524;13.694;2023-06-10T12:41:01;8.25;;;6.07;;
22240;SDS011;11289;52.524;13.694;2023-06-10T12:43:27;8.50;;;6.85;;
22240;SDS011;11289;52.524;13.694;2023-06-10T12:45:53;8.75;;;6.72;;
22240;SDS011;11289;52.524;13.694;2023-06-10T12:48:21;9.00;;;7.45;;
22240;SDS011;11289;52.524;13.694;2023-06-10T12:50:53;7.65;;;6.70;;
22240;SDS011;11289;52.524;13.694;2023-06-10T12:53:21;10.38;;;7.90;;
22240;SDS011;11289;52.524;13.694;2023-06-10T12:55:49;8.55;;;6.20;;
22240;SDS011;11289;52.524;13.694;2023-06-10T12:58:16;9.85;;;7.15;;
22240;SDS011;11289;52.524;13.694;2023-06-10T13:00:42;8.10;;;6.80;;
22240;SDS011;11289;52.524;13.694;2023-06-10T13:03:09;9.10;;;6.50;;
22240;SDS011;11289;52.524;13.694;2023-06-10T13:05:36;8.60;;;6.43;;
22240;SDS011;11289;52.524;13.694;2023-06-10T13:08:05;6.82;;;5.97;;
22240;SDS011;11289;52.524;13.694;2023-06-10T13:10:33;8.98;;;7.05;;
22240;SDS011;11289;52.524;13.694;2023-06-10T13:12:59;9.77;;;6.50;;
22240;SDS011;11289;52.524;13.694;2023-06-10T13:15:26;9.63;;;6.68;;
22240;SDS011;11289;52.524;13.694;2023-06-10T13:17:52;5.95;;;5.10;;
22240;SDS011;11289;52.524;13.694;2023-06-10T13:20:18;7.22;;;5.35;;
22240;SDS011;11289;52.524;13.694;2023-06-10T13:22:46;6.93;;;5.57;;
22240;SDS011;11289;52.524;13.694;2023-06-10T13:25:13;8.25;;;4.82;;
22240;SDS011;11289;52.524;13.694;2023-06-10T13:27:39;4.97;;;4.45;;
22240;SDS011;11289;52.524;13.694;2023-06-10T13:30:05;7.13;;;4.53;;
22240;SDS011;11289;52.524;13.694;2023-06-10T13:32:32;5.10;;;4.60;;
22240;SDS011;11289;52.524;13.694;2023-06-10T13:34:58;6.63;;;5.32;;
22240;SDS011;11289;52.524;13.694;2023-06-10T13:37:24;6.03;;;4.60;;
22240;SDS011;11289;52.524;13.694;2023-06-10T13:39:50;7.50;;;5.40;;
22240;SDS011;11289;52.524;13.694;2023-06-10T13:42:17;6.80;;;4.95;;
22240;SDS011;11289;52.524;13.694;2023-06-10T13:44:43;8.15;;;6.07;;
22240;SDS011;11289;52.524;13.694;2023-06-10T13:47:09;7.90;;;5.40;;
22240;SDS011;11289;52.524;13.694;2023-06-10T13:49:36;7.13;;;5.35;;
22240;SDS011;11289;52.524;13.694;2023-06-10T13:52:02;9.43;;;5.65;;
22240;SDS011;11289;52.524;13.694;2023-06-10T13:54:28;8.10;;;6.05;;
22240;SDS011;11289;52.524;13.694;2023-06-10T13:56:54;8.52;;;5.53;;
22240;SDS011;11289;52.524;13.694;2023-06-10T13:59:20;9.48;;;5.55;;
22240;SDS011;11289;52.524;13.694;2023-06-10T14:01:46;7.18;;;6.47;;
22240;SDS011;11289;52.524;13.694;2023-06-10T14:04:13;7.97;;;5.65;;
22240;SDS011;11289;52.524;13.694;2023-06-10T14:06:39;7.50;;;5.82;;
22240;SDS011;11289;52.524;13.694;2023-06-10T14:09:05;7.15;;;5.93;;
22240;SDS011;11289;52.524;13.694;2023-06-10T14:11:30;7.70;;;5.70;;
22240;SDS011;11289;52.524;13.694;2023-06-10T14:13:57;7.45;;;5.80;;
22240;SDS011;11289;52.524;13.694;2023-06-10T14:16:23;6.55;;;5.22;;
22240;SDS011;11289;52.524;13.694;2023-06-10T14:18:50;9.75;;;6.38;;
22240;SDS011;11289;52.524;13.694;2023-06-10T14:21:19;7.90;;;5.53;;
22240;SDS011;11289;52.524;13.694;2023-06-10T14:23:45;6.97;;;4.93;;
22240;SDS011;11289;52.524;13.694;2023-06-10T14:26:11;8.77;;;5.22;;
22240;SDS011;11289;52.524;13.694;2023-06-10T14:28:38;6.95;;;5.55;;
22240;SDS011;11289;52.524;13.694;2023-06-10T14:31:04;7.63;;;5.68;;
22240;SDS011;11289;52.524;13.694;2023-06-10T14:33:30;5.70;;;4.97;;
22240;SDS011;11289;52.524;13.694;2023-06-10T14:35:57;8.32;;;5.50;;
22240;SDS011;11289;52.524;13.694;2023-06-10T14:38:23;6.30;;;4.90;;
22240;SDS011;11289;52.524;13.694;2023-06-10T14:40:49;5.72;;;4.65;;
22240;SDS011;11289;52.524;13.694;2023-06-10T14:43:15;6.40;;;4.93;;
22240;SDS011;11289;52.524;13.694;2023-06-10T14:45:41;9.20;;;4.75;;